Weather observations for the past three days for
York, York Municipal Airport
Imperial (Metric)
Date Time (cdt) Wind (mph) Vis. (mi.) Weather Sky Cond. Temperature (ºF) Relative Humidity Wind Chill (°F) Heat Index (°F) Pressure Precipitation (in)
Air Dwpt 6 hour altimeter (in) sea level (mb) 1 hr 3 hr 6 hr
Max. Min.
04 20:15 N 22 G 31 10.00 Fair and Breezy CLR 60.8 33.8 36% 29.71 0.0
04 19:55 N 30 G 36 10.00 Fair and Windy CLR 62.6 33.8 34% 29.71 0.0
04 19:35 N 24 G 32 10.00 Fair and Breezy CLR 66.2 33.8 30% 29.69 0.0
04 19:15 N 26 G 33 10.00 Fair and Windy CLR 68 33.8 28% 29.68 0.0
04 18:55 N 22 G 28 10.00 Fair and Breezy CLR 68 33.8 28% 29.7 0.0
04 18:35 N 24 10.00 Fair and Breezy CLR 69.8 35.6 29% 29.69 0.0
04 18:15 N 23 10.00 Fair and Breezy CLR 69.8 35.6 29% 29.69 0.0
04 17:55 N 22 G 30 10.00 Fair and Breezy CLR 71.6 37.4 29% 29.68 0.0
04 17:35 N 18 G 29 10.00 Fair CLR 71.6 37.4 29% 29.68 0.0
04 17:15 N 22 G 29 10.00 Fair and Breezy CLR 71.6 35.6 27% 29.67 0.0
04 16:55 N 25 10.00 Fair and Breezy CLR 73.4 35.6 25% 29.66 0.0
04 16:35 N 18 G 32 10.00 Fair CLR 73.4 35.6 25% 29.66 0.0
04 16:15 N 25 G 32 10.00 Fair and Breezy CLR 75.2 37.4 25% 77 29.64 0.0
04 15:55 N 22 G 32 10.00 Fair and Breezy CLR 73.4 37.4 27% 29.63 0.0
04 15:35 N 21 G 31 10.00 Fair and Breezy CLR 75.2 39.2 27% 77 29.64 0.0
04 15:15 N 18 G 26 10.00 Fair CLR 75.2 41 29% 77 29.64 0.0
04 14:55 N 17 G 30 10.00 Fair CLR 77 42.8 30% 78 29.64 0.0
04 14:35 N 22 G 32 10.00 Fair and Breezy CLR 77 42.8 30% 78 29.63 0.0
04 14:15 N 16 G 29 10.00 Fair CLR 78.8 44.6 30% 79 29.63 0.0
04 13:55 N 13 G 30 10.00 Fair CLR 77 42.8 30% 78 29.63 0.0
04 13:35 N 17 G 35 10.00 Fair CLR 78.8 42.8 28% 78 29.63 0.0
04 13:15 NW 16 G 26 10.00 Fair CLR 80.6 41 24% 79 29.62 0.0
04 12:55 NW 17 G 23 10.00 Fair CLR 80.6 39.2 23% 79 29.62 0.0
04 12:35 N 13 G 25 10.00 Fair CLR 80.6 39.2 23% 79 29.62 0.0
04 12:15 W 10 G 23 10.00 Fair CLR 80.6 35.6 20% 79 29.62 0.0
04 11:55 NW 12 G 21 10.00 Fair CLR 78.8 37.4 23% 78 29.63 0.0
04 11:35 W 18 10.00 Fair CLR 78.8 39.2 24% 78 29.63 0.0
04 11:15 W 16 10.00 Fair CLR 77 41 28% 78 29.63 0.0
04 10:55 W 15 10.00 Fair CLR 75.2 41 29% 77 29.63 0.0
04 10:35 W 15 10.00 Fair CLR 73.4 42.8 33% 29.63 0.0
04 10:15 W 14 10.00 Fair CLR 71.6 42.8 36% 29.64 0.0
04 09:55 W 12 10.00 Fair CLR 69.8 41 35% 29.64 0.0
04 09:35 W 13 10.00 Fair CLR 68 41 38% 29.64 0.0
04 09:15 W 13 10.00 Fair CLR 66.2 41 40% 29.64 0.0
04 08:55 NW 10 10.00 Fair CLR 62.6 41 45% 29.64 0.0
04 08:35 NW 10 10.00 Fair CLR 60.8 42.8 52% 29.64 0.0
04 08:15 NW 12 10.00 Fair CLR 57.2 41 55% 29.64 0.0
04 07:55 NW 10 10.00 Fair CLR 55.4 42.8 63% 29.64 0.0
04 07:35 N 3 10.00 Fair CLR 51.8 42.8 72% 29.64 0.0
04 06:55 W 8 9.00 Fair CLR 46.4 41 82% 43 29.62 0.0
04 06:35 W 10 10.00 Fair CLR 46.4 41 82% 42 29.62 0.0
04 06:15 W 6 10.00 Fair CLR 46.4 39.2 76% 44 29.62 0.0
04 05:55 W 7 10.00 Fair CLR 44.6 39.2 81% 41 29.62 0.0
04 05:35 W 3 10.00 Fair CLR 46.4 39.2 76% 29.62 0.0
04 05:15 Calm 10.00 Fair CLR 46.4 39.2 76% 29.62 0.0
04 04:55 W 5 10.00 Fair CLR 46.4 39.2 76% 45 29.63 0.0
04 04:35 SW 5 10.00 Fair CLR 46.4 39.2 76% 45 29.63 0.0
04 04:15 S 7 10.00 Fair CLR 48.2 41 76% 46 29.64 0.0
04 03:55 SW 7 10.00 Fair CLR 48.2 41 76% 46 29.65 0.0
04 03:35 S 5 10.00 Fair CLR 53.6 37.4 54% 29.65 0.0
04 03:15 S 5 10.00 Fair CLR 53.6 37.4 54% 29.65 0.0
04 02:55 S 7 10.00 Fair CLR 55.4 37.4 51% 29.66 0.0
04 02:35 S 7 10.00 Fair CLR 53.6 39.2 58% 29.67 0.0
04 02:15 S 7 10.00 Fair CLR 53.6 37.4 54% 29.68 0.0
04 01:55 S 7 10.00 Fair CLR 53.6 39.2 58% 29.7 0.0
04 01:35 S 7 10.00 Fair CLR 55.4 39.2 55% 29.7 0.0
04 01:15 SE 9 10.00 Fair CLR 59 37.4 45% 29.71 0.0
04 00:55 SE 6 10.00 Fair CLR 57.2 39.2 51% 29.72 0.0
04 00:35 SE 6 10.00 Fair CLR 57.2 39.2 51% 29.73 0.0
04 00:15 SE 6 10.00 Fair CLR 59 39.2 48% 29.74 0.0
03 23:55 SE 5 10.00 Fair CLR 59 37.4 45% 29.74 0.0
03 23:35 SE 6 10.00 Mostly Cloudy BKN065 60.8 37.4 42% 29.74 0.0
03 23:15 SE 7 10.00 Overcast OVC060 59 39.2 48% 29.75 0.0
03 22:55 SE 7 10.00 Overcast BKN065 BKN075 OVC095 60.8 39.2 45% 29.75 0.0
03 22:35 SE 8 10.00 Mostly Cloudy FEW075 BKN090 62.6 37.4 39% 29.76 0.0
03 22:15 SE 7 10.00 Partly Cloudy SCT085 62.6 37.4 39% 29.77 0.0
03 21:55 SE 6 10.00 A Few Clouds FEW080 62.6 37.4 39% 29.77 0.0
03 21:35 SE 5 10.00 Fair CLR 62.6 39.2 42% 29.77 0.0
03 21:15 E 6 10.00 Fair CLR 64.4 39.2 40% 29.77 0.0
03 20:55 E 6 10.00 Fair CLR 66.2 37.4 35% 29.77 0.0
03 20:35 Calm 10.00 Fair CLR 66.2 41 40% 29.78 0.0
03 20:15 N 5 10.00 Fair CLR 69.8 35.6 29% 29.77 0.0
03 19:55 Calm 10.00 Fair CLR 69.8 37.4 31% 29.78 0.0
03 19:35 Calm 10.00 Fair CLR 71.6 37.4 29% 29.79 0.0
03 19:15 Calm 10.00 Fair CLR 71.6 42.8 36% 29.79 0.0
03 18:55 Calm 10.00 Fair CLR 73.4 35.6 25% 29.8 0.0
03 18:35 Calm 10.00 Fair CLR 73.4 35.6 25% 29.81 0.0
03 18:15 Vrbl 3 10.00 Fair CLR 73.4 35.6 25% 29.81 0.0
03 17:55 Calm 9.00 Fair CLR 73.4 35.6 25% 29.82 0.0
03 17:35 NW 5 10.00 Fair CLR 73.4 35.6 25% 29.82 0.0
03 17:15 Calm 10.00 Fair CLR 73.4 35.6 25% 29.82 0.0
03 16:55 Vrbl 3 10.00 Fair CLR 73.4 37.4 27% 29.83 0.0
03 16:35 E 5 G 13 10.00 Fair CLR 73.4 35.6 25% 29.83 0.0
03 16:15 Calm 10.00 Fair CLR 73.4 33.8 23% 29.83 0.0
03 15:55 N 5 G 12 10.00 Fair CLR 73.4 35.6 25% 29.84 0.0
03 15:35 Vrbl 5 10.00 Fair CLR 73.4 35.6 25% 29.85 0.0
03 15:15 Vrbl 3 G 15 10.00 Fair CLR 71.6 35.6 27% 29.86 0.0
03 14:55 NE 10 G 17 10.00 Fair CLR 73.4 37.4 27% 29.87 0.0
03 14:35 N 9 10.00 Fair CLR 73.4 37.4 27% 29.87 0.0
03 14:15 N 12 G 21 10.00 Fair CLR 73.4 35.6 25% 29.88 0.0
03 13:55 N 9 10.00 Fair CLR 73.4 37.4 27% 29.88 0.0
03 13:35 N 8 G 15 10.00 Fair CLR 73.4 37.4 27% 29.88 0.0
03 13:15 NE 14 10.00 Fair CLR 73.4 37.4 27% 29.89 0.0
03 12:55 NE 9 G 20 10.00 Fair CLR 73.4 37.4 27% 29.9 0.0
03 12:35 N 9 G 17 10.00 Fair CLR 71.6 37.4 29% 29.91 0.0
03 12:15 N 12 G 17 10.00 Fair CLR 71.6 37.4 29% 29.91 0.0
03 11:55 N 14 10.00 Fair CLR 71.6 39.2 31% 29.91 0.0
03 11:35 N 8 G 18 10.00 Fair CLR 69.8 41 35% 29.91 0.0
03 11:15 N 15 10.00 Fair CLR 69.8 39.2 33% 29.92 0.0
03 10:55 N 10 G 16 10.00 Fair CLR 68 39.2 35% 29.92 0.0
03 10:35 N 9 10.00 Fair CLR 66.2 39.2 37% 29.92 0.0
03 10:15 N 10 10.00 Fair CLR 66.2 39.2 37% 29.92 0.0
03 09:55 NW 12 10.00 Fair CLR 64.4 39.2 40% 29.92 0.0
03 09:35 N 8 G 14 10.00 Fair CLR 62.6 37.4 39% 29.92 0.0
03 09:15 NW 8 10.00 Fair CLR 62.6 37.4 39% 29.91 0.0
03 08:55 NW 10 10.00 Fair CLR 60.8 39.2 45% 29.91 0.0
03 08:35 W 9 10.00 Fair CLR 59 39.2 48% 29.9 0.0
03 08:15 W 9 10.00 Fair CLR 55.4 39.2 55% 29.89 0.0
03 07:55 W 9 10.00 Fair CLR 53.6 39.2 58% 29.9 0.0
03 07:35 SW 9 10.00 Fair CLR 50 39.2 67% 47 29.89 0.0
03 07:15 SW 8 10.00 Fair CLR 48.2 37.4 66% 45 29.88 0.0
03 06:55 SW 9 10.00 Fair CLR 48.2 37.4 66% 45 29.88 0.0
03 06:35 SW 9 10.00 Fair CLR 46.4 37.4 71% 42 29.88 0.0
03 06:15 SW 8 10.00 Fair CLR 46.4 35.6 66% 43 29.87 0.0
03 05:35 SW 8 10.00 Fair CLR 46.4 35.6 66% 43 29.87 0.0
03 05:15 W 10 10.00 Fair CLR 50 33.8 54% 46 29.89 0.0
03 04:55 NW 18 G 26 10.00 Fair CLR 50 32 50% 44 29.91 0.0
03 04:35 SW 15 10.00 Fair CLR 51.8 32 47% 29.85 0.0
03 04:15 S 13 10.00 Fair CLR 50 32 50% 46 29.86 0.0
03 03:55 S 12 10.00 Fair CLR 50 30.2 47% 46 29.86 0.0
03 03:35 S 13 10.00 Fair CLR 50 30.2 47% 46 29.86 0.0
03 03:15 SW 14 10.00 Fair CLR 51.8 30.2 44% 29.87 0.0
03 02:55 SW 15 10.00 Fair CLR 51.8 30.2 44% 29.88 0.0
03 02:35 SW 16 G 22 10.00 Fair CLR 53.6 30.2 41% 29.89 0.0
03 02:15 SW 15 G 22 10.00 Fair CLR 53.6 30.2 41% 29.89 0.0
03 01:55 SW 16 10.00 Fair CLR 53.6 30.2 41% 29.9 0.0
03 01:35 SW 16 10.00 Fair CLR 53.6 30.2 41% 29.9 0.0
03 01:15 S 18 G 24 10.00 Fair CLR 55.4 30.2 38% 29.9 0.0
03 00:55 S 17 10.00 Fair CLR 55.4 30.2 38% 29.9 0.0
03 00:35 S 17 10.00 Fair CLR 55.4 30.2 38% 29.9 0.0
03 00:15 S 17 10.00 Fair CLR 55.4 30.2 38% 29.91 0.0
02 23:55 S 16 10.00 Fair CLR 55.4 30.2 38% 29.91 0.0
02 23:35 S 18 10.00 Fair CLR 57.2 30.2 36% 29.91 0.0
02 23:15 S 16 10.00 Fair CLR 55.4 28.4 36% 29.92 0.0
02 22:55 S 16 10.00 Fair CLR 55.4 28.4 36% 29.92 0.0
02 22:35 S 14 10.00 Fair CLR 55.4 30.2 38% 29.93 0.0
02 22:15 S 13 10.00 Fair CLR 57.2 28.4 33% 29.94 0.0
02 21:55 S 14 10.00 Fair CLR 57.2 28.4 33% 29.94 0.0
02 21:35 S 13 10.00 Fair CLR 59 28.4 31% 29.95 0.0
02 21:15 S 10 10.00 Fair CLR 59 30.2 34% 29.95 0.0
02 20:55 S 9 10.00 Fair CLR 59 30.2 34% 29.95 0.0
02 20:35 S 9 10.00 Fair CLR 60.8 30.2 31% 29.95 0.0
02 20:15 S 8 10.00 Fair CLR 62.6 32 32% 29.96 0.0
02 19:55 SW 8 10.00 Fair CLR 64.4 32 30% 29.96 0.0
02 19:35 SW 8 10.00 Fair CLR 68 28.4 23% 29.97 0.0
02 19:15 SW 12 10.00 Fair CLR 68 28.4 23% 29.97 0.0
02 18:55 W 14 10.00 Fair CLR 68 26.6 21% 29.98 0.0
02 18:35 W 14 10.00 Fair CLR 68 26.6 21% 29.98 0.0
02 18:15 SW 14 G 21 10.00 Fair CLR 69.8 26.6 20% 29.99 0.0
02 17:55 SW 10 G 21 10.00 Fair CLR 68 26.6 21% 30 0.0
02 17:35 SW 9 G 20 10.00 Fair CLR 69.8 26.6 20% 30.01 0.0
02 17:15 SW 9 G 17 10.00 Fair CLR 68 24.8 20% 30.01 0.0
02 16:55 W 10 G 21 10.00 Fair CLR 68 26.6 21% 30.02 0.0
02 16:35 W 9 G 18 10.00 Fair CLR 68 26.6 21% 30.03 0.0
02 16:15 SW 14 10.00 Fair CLR 68 26.6 21% 30.04 0.0
02 15:55 W 16 10.00 Fair CLR 68 26.6 21% 30.05 0.0
02 15:35 Vrbl 7 G 16 10.00 Fair CLR 66.2 24.8 21% 30.06 0.0
02 14:55 W 13 G 20 10.00 Fair CLR 66.2 26.6 22% 30.08 0.0
02 14:35 W 9 10.00 Fair CLR 66.2 28.4 24% 30.09 0.0
02 14:15 W 8 G 18 10.00 Fair CLR 64.4 26.6 24% 30.09 0.0
02 13:55 W 8 G 17 10.00 Fair CLR 64.4 28.4 26% 30.1 0.0
02 13:35 Vrbl 6 G 16 10.00 Fair CLR 62.6 26.6 25% 30.11 0.0
02 13:15 W 9 10.00 Fair CLR 62.6 28.4 27% 30.12 0.0
02 12:55 SW 9 G 16 10.00 Fair CLR 60.8 28.4 29% 30.13 0.0
02 12:35 Vrbl 6 G 13 10.00 Fair CLR 60.8 28.4 29% 30.14 0.0
02 12:15 W 8 G 15 10.00 Fair CLR 60.8 28.4 29% 30.15 0.0
02 11:55 W 8 G 14 10.00 Fair CLR 59 30.2 34% 30.16 0.0
02 11:35 W 8 G 14 10.00 Fair CLR 59 30.2 34% 30.16 0.0
02 11:15 W 10 G 16 10.00 Fair CLR 59 30.2 34% 30.17 0.0
02 10:55 W 12 10.00 Fair CLR 57.2 28.4 33% 30.18 0.0
02 10:35 W 10 10.00 Fair CLR 55.4 28.4 36% 30.18 0.0
02 10:15 W 9 10.00 Fair CLR 53.6 28.4 38% 30.18 0.0
02 09:55 SW 9 10.00 Fair CLR 53.6 28.4 38% 30.19 0.0
02 09:35 W 9 10.00 Fair CLR 51.8 28.4 41% 30.19 0.0
02 09:15 W 10 10.00 Fair CLR 50 32 50% 46 30.19 0.0
02 08:55 W 9 10.00 Fair CLR 48.2 32 54% 45 30.19 0.0
02 08:35 W 6 10.00 Fair CLR 44.6 33.8 66% 42 30.19 0.0
02 08:15 W 7 10.00 Fair CLR 42.8 35.6 76% 39 30.18 0.0
02 07:55 W 5 10.00 Fair CLR 39.2 35.6 87% 36 30.18 0.0
02 07:35 W 7 10.00 Fair CLR 35.6 33.8 93% 31 30.18 0.0
02 07:15 W 5 10.00 Fair CLR 33.8 32 93% 30 30.18 0.0
02 06:55 W 6 10.00 Fair CLR 33.8 30.2 87% 29 30.18 0.0
02 06:35 W 6 10.00 Fair CLR 32 30.2 93% 27 30.17 0.0
02 06:15 W 6 10.00 Fair CLR 32 30.2 93% 27 30.17 0.0
02 05:55 W 7 10.00 Fair CLR 32 30.2 93% 26 30.17 0.0
02 05:35 W 7 10.00 Fair CLR 32 30.2 93% 26 30.18 0.0
02 05:15 W 6 10.00 Fair CLR 33.8 30.2 87% 29 30.17 0.0
02 04:55 W 6 10.00 Fair CLR 32 30.2 93% 27 30.17 0.0
02 04:35 W 5 10.00 Fair CLR 32 30.2 93% 28 30.17 0.0
02 04:15 W 6 10.00 Fair CLR 33.8 30.2 87% 29 30.17 0.0
02 03:55 W 5 10.00 Fair CLR 32 30.2 93% 28 30.17 0.0
02 03:35 W 5 10.00 Fair CLR 32 30.2 93% 28 30.17 0.0
02 03:15 W 5 10.00 Fair CLR 33.8 28.4 81% 30 30.17 0.0
02 02:55 W 6 10.00 Fair CLR 32 30.2 93% 27 30.17 0.0
02 02:15 W 3 10.00 Fair CLR 33.8 30.2 87% 30.17 0.0
02 01:55 Calm 10.00 Fair CLR 35.6 30.2 81% 30.17 0.0
02 01:35 Calm 10.00 Fair CLR 39.2 28.4 65% 30.17 0.0
02 01:15 Calm 10.00 Fair CLR 39.2 30.2 70% 30.17 0.0
02 00:55 N 6 10.00 Fair CLR 39.2 30.2 70% 36 30.17 0.0
02 00:35 N 5 10.00 Fair CLR 41 28.4 61% 38 30.16 0.0
02 00:15 N 5 10.00 Fair CLR 41 28.4 61% 38 30.16 0.0
01 23:55 NE 5 10.00 Fair CLR 41 26.6 57% 38 30.16 0.0
01 23:35 Calm 10.00 Fair CLR 42.8 26.6 53% 30.15 0.0
01 23:15 NE 5 10.00 Fair CLR 42.8 26.6 53% 41 30.15 0.0
01 22:55 NE 6 10.00 Fair CLR 42.8 28.4 57% 40 30.15 0.0
01 22:35 NE 6 10.00 Fair CLR 44.6 28.4 53% 42 30.14 0.0
01 22:15 NE 7 10.00 Fair CLR 44.6 26.6 49% 41 30.14 0.0
01 21:55 NE 7 10.00 Fair CLR 42.8 28.4 57% 39 30.13 0.0
01 21:35 NE 8 10.00 Fair CLR 44.6 26.6 49% 41 30.12 0.0
01 21:15 NE 8 10.00 Fair CLR 46.4 28.4 50% 43 30.11 0.0
01 20:55 NE 8 10.00 Fair CLR 48.2 28.4 46% 45 30.11 0.0
Date Time (cdt) Wind (mph) Vis. (mi.) Weather Sky Cond. Air Dwpt Max. Min. Relative Humidity Wind Chill (°F) Heat Index (°F) altimeter (in) sea level (mb) 1 hr 3 hr 6 hr
6 hour
Temperature (ºF) Pressure Precipitation (in)